Tropical Cyclones
[Index]
Main Index Home Page Stock Weather Photos Extreme Storms Discussion Storm News and Storm Chasing Reports Tropical Cyclones / Hurricanes / Typhoons Weather Data and Links Wild Fires / Bushfires Weather Observation Techniques Weather Picture Catalogue Tornado Pictures and Reports Stock Video Footage and DVDs for sale
Season 2008-2009 Tropical Cyclone 200919 Track Map
Season 2008-2009 Summaries: [BoM-AU] [JTWC-AU] [JTWC-SIO] [JTWC-SPAC] [JTWC-SH]
<<- Previous TC | JTWC 2008-2009 Season | Next TC ->>

click for intensity scale information  Lat/long Grid: Show Hide

 Date Labels: Show Hide

Joint Typhoon Warning Centre Cyclone Data

Name: 200919

06 Mar 2009 12:00 UTC to 13 Mar 2009 12:00 UTC

    date/time    lat    long     hPa   cat  kts
2009-03-06 12   11.6    80.6    1010         15          
2009-03-06 18   12.0    80.6    1010         15          
2009-03-07 00   12.4    80.5    1010         15          
2009-03-07 06   12.9    80.3    1010         15          
2009-03-07 12   13.3    80.2    1010         15          
2009-03-07 18   13.8    80.4    1010         15          
2009-03-08 00   14.2    80.9    1010         15          
2009-03-08 06   14.6    81.7    1007         20          
2009-03-08 12   15.0    82.8    1004         25          
2009-03-08 18   15.7    83.7    1004         25          
2009-03-09 00   16.5    84.8    1004         25          
2009-03-09 06   17.6    85.8    1000         30          
2009-03-09 09   18.2    85.7    1000         30          
2009-03-09 12   18.4    86.3     996         35          
2009-03-09 18   18.7    87.3     996         35          
2009-03-10 00   19.2    87.8     996         35          
2009-03-10 06   19.5    88.2    1000         30          
2009-03-10 12   19.6    88.8    1004         25          
2009-03-10 18   19.9    88.3    1004         25          
2009-03-11 00   20.0    87.8    1004         25          
2009-03-11 06   20.2    87.2    1004         25          
2009-03-11 12   20.1    86.6    1004         25          
2009-03-11 18   19.9    85.9    1004         25          
2009-03-12 00   20.0    85.2    1004         25          
2009-03-12 06   20.2    83.9    1007         20          
2009-03-12 12   19.9    82.7    1010         15          
2009-03-12 18   20.0    81.4    1010         15          
2009-03-13 00   20.2    80.1    1010         15          
2009-03-13 06   20.5    78.5    1010         15          
2009-03-13 12   20.5    77.2    1010         15          
Winds are 1-min average.

Tropical cyclone tracks developed by Michael Bath using data from the Joint Typhoon Warning Centre Best Tracks and Google Maps.


[Australian Severe Weather index] [Copyright Notice] [Email Contacts] [Search This Site] [Privacy Policy]
Document: tropical_cyclone_200919.htm Updated: 28 June 2017